createdAt,value
2019-01-29T00:00:55.689Z,6.63
2019-01-29T00:05:59.423Z,6.30
2019-01-29T00:11:03.085Z,5.40
2019-01-29T00:16:06.815Z,5.30
2019-01-29T00:21:10.616Z,4.90
2019-01-29T00:26:14.350Z,5.90
2019-01-29T00:31:18.149Z,5.10
2019-01-29T00:36:22.043Z,5.23
2019-01-29T00:41:25.856Z,4.90
2019-01-29T00:46:29.581Z,4.63
2019-01-29T00:51:33.273Z,5.33
2019-01-29T00:56:36.954Z,4.93
2019-01-29T01:01:40.662Z,5.10
2019-01-29T01:06:44.661Z,4.10
2019-01-29T01:11:48.653Z,4.20
2019-01-29T01:16:52.433Z,4.63
2019-01-29T01:21:56.156Z,3.77
2019-01-29T01:26:59.883Z,4.03
2019-01-29T01:32:03.581Z,4.63
2019-01-29T01:37:07.367Z,3.80
2019-01-29T01:42:11.061Z,3.70
2019-01-29T01:47:14.887Z,3.60
2019-01-29T01:52:18.552Z,3.57
2019-01-29T01:57:22.496Z,3.50
2019-01-29T02:02:26.222Z,3.63
2019-01-29T02:07:29.919Z,3.30
2019-01-29T02:12:33.598Z,3.60
2019-01-29T02:17:37.337Z,3.40
2019-01-29T02:22:41.025Z,2.97
2019-01-29T02:27:44.701Z,3.23
2019-01-29T02:32:48.550Z,3.80
2019-01-29T02:37:52.279Z,3.43
2019-01-29T02:42:55.985Z,2.80
2019-01-29T02:47:59.689Z,2.60
2019-01-29T02:53:03.408Z,2.83
2019-01-29T02:58:07.213Z,3.03
2019-01-29T03:03:11.197Z,3.00
2019-01-29T03:08:14.886Z,2.53
2019-01-29T03:13:18.567Z,2.87
2019-01-29T03:18:22.269Z,2.70
2019-01-29T03:23:27.699Z,2.20
2019-01-29T03:28:31.282Z,2.20
2019-01-29T03:33:35.104Z,2.27
2019-01-29T03:38:38.859Z,2.57
2019-01-29T03:43:42.603Z,1.93
2019-01-29T03:48:46.381Z,2.07
2019-01-29T03:53:50.053Z,2.73
2019-01-29T03:58:54.260Z,2.93
2019-01-29T04:03:58.391Z,2.20
2019-01-29T04:09:02.081Z,2.40
2019-01-29T04:14:05.805Z,2.40
2019-01-29T04:19:09.487Z,2.77
2019-01-29T04:24:13.139Z,2.10
2019-01-29T04:29:16.831Z,2.00
2019-01-29T04:34:20.471Z,2.40
2019-01-29T04:39:24.217Z,2.03
2019-01-29T04:44:28.087Z,2.10
2019-01-29T04:49:31.872Z,2.13
2019-01-29T04:54:35.665Z,2.57
2019-01-29T04:59:39.398Z,2.00
2019-01-29T05:04:43.261Z,2.30
2019-01-29T05:09:47.415Z,2.07
2019-01-29T05:14:51.437Z,2.30
2019-01-29T05:19:55.590Z,2.60
2019-01-29T05:24:59.303Z,2.63
2019-01-29T05:30:03.023Z,3.40
2019-01-29T05:35:06.923Z,4.10
2019-01-29T05:40:13.301Z,5.33
2019-01-29T05:45:18.468Z,6.67
2019-01-29T05:50:22.156Z,6.60
2019-01-29T05:55:25.875Z,7.37
2019-01-29T06:00:33.794Z,6.93
2019-01-29T06:05:37.530Z,7.43
2019-01-29T06:10:41.422Z,6.87
2019-01-29T06:15:45.084Z,6.67
2019-01-29T06:20:48.866Z,7.67
2019-01-29T06:25:52.596Z,7.00
2019-01-29T06:30:56.432Z,8.80
2019-01-29T06:36:00.458Z,8.47
2019-01-29T06:41:04.148Z,8.93
2019-01-29T06:46:07.846Z,9.53
2019-01-29T06:51:11.655Z,8.80
2019-01-29T06:56:15.449Z,8.10
2019-01-29T07:01:19.276Z,8.20
2019-01-29T07:06:23.048Z,8.20
2019-01-29T07:11:26.964Z,7.73
2019-01-29T07:16:39.489Z,6.90
2019-01-29T07:21:43.224Z,7.20
2019-01-29T07:26:47.094Z,7.43
2019-01-29T07:31:50.871Z,6.43
2019-01-29T07:36:54.622Z,6.80
2019-01-29T07:41:58.388Z,6.90
2019-01-29T07:47:02.392Z,6.80
2019-01-29T07:52:06.108Z,6.00
2019-01-29T07:57:09.880Z,6.30
2019-01-29T08:02:13.567Z,6.23
2019-01-29T08:07:17.360Z,5.50
2019-01-29T08:12:21.155Z,5.80
2019-01-29T08:17:25.016Z,6.03
2019-01-29T08:22:28.913Z,5.87
2019-01-29T08:27:32.705Z,6.30
2019-01-29T08:32:36.381Z,6.30
2019-01-29T08:37:40.170Z,5.40
2019-01-29T08:42:43.969Z,6.10
2019-01-29T08:47:47.821Z,4.63
2019-01-29T08:52:51.963Z,5.47
2019-01-29T08:57:55.689Z,5.10
2019-01-29T09:02:59.397Z,5.43
2019-01-29T09:08:03.180Z,6.00
2019-01-29T09:13:07.053Z,4.80
2019-01-29T09:18:10.859Z,4.90
2019-01-29T09:23:14.658Z,4.17
2019-01-29T09:28:18.680Z,4.40
2019-01-29T09:33:22.491Z,4.70
2019-01-29T09:38:26.235Z,5.53
2019-01-29T09:43:29.991Z,4.40
2019-01-29T09:48:33.761Z,4.40
2019-01-29T09:53:37.832Z,4.70
2019-01-29T09:58:41.635Z,4.37
2019-01-29T10:03:45.373Z,4.70
2019-01-29T10:08:49.098Z,4.70
2019-01-29T10:13:52.775Z,5.43
2019-01-29T10:18:56.531Z,4.80
2019-01-29T10:24:00.247Z,5.30
2019-01-29T10:29:04.077Z,5.83
2019-01-29T10:34:08.128Z,5.13
2019-01-29T10:39:11.967Z,4.90
2019-01-29T10:44:15.659Z,5.00
2019-01-29T10:49:21.554Z,5.17
2019-01-29T10:54:25.369Z,4.80
2019-01-29T10:59:29.191Z,4.27
2019-01-29T11:04:33.010Z,4.37
2019-01-29T11:09:36.706Z,4.30
2019-01-29T11:14:40.417Z,4.00
2019-01-29T11:19:44.145Z,4.10
2019-01-29T11:24:47.889Z,3.53
2019-01-29T11:29:51.603Z,3.30
2019-01-29T11:34:55.505Z,4.13
2019-01-29T11:39:59.220Z,3.83
2019-01-29T11:45:03.009Z,3.53
2019-01-29T11:50:07.564Z,3.60
2019-01-29T11:55:11.555Z,3.40
2019-01-29T12:00:20.890Z,3.30
2019-01-29T12:05:24.892Z,2.93
2019-01-29T12:10:28.675Z,4.20
2019-01-29T12:15:32.359Z,3.43
2019-01-29T12:20:36.357Z,2.90
2019-01-29T12:25:40.221Z,3.53
2019-01-29T12:30:44.024Z,2.87
2019-01-29T12:35:48.074Z,3.30
2019-01-29T12:40:51.880Z,3.27
2019-01-29T12:45:56.039Z,3.27
2019-01-29T12:51:00.775Z,3.40
2019-01-29T12:56:04.864Z,2.83
2019-01-29T13:01:09.826Z,3.10
2019-01-29T13:06:13.521Z,2.80
2019-01-29T13:11:17.337Z,2.90
2019-01-29T13:16:22.042Z,3.67
2019-01-29T13:21:25.800Z,2.80
2019-01-29T13:26:30.163Z,3.90
2019-01-29T13:31:34.364Z,3.37
2019-01-29T13:36:38.182Z,4.00
2019-01-29T13:41:41.942Z,3.40
2019-01-29T13:46:45.688Z,3.57
2019-01-29T13:51:49.458Z,4.20
2019-01-29T13:56:53.365Z,3.43
2019-01-29T14:01:57.791Z,3.97
2019-01-29T14:07:01.622Z,3.83
2019-01-29T14:12:05.574Z,3.53
2019-01-29T14:17:09.299Z,3.87
2019-01-29T14:22:13.075Z,3.33
2019-01-29T14:27:16.876Z,3.10
2019-01-29T14:32:20.627Z,3.20
2019-01-29T14:37:24.484Z,4.10
2019-01-29T14:42:28.491Z,2.80
2019-01-29T14:47:32.247Z,3.40
2019-01-29T14:52:35.939Z,4.30
2019-01-29T14:57:41.033Z,3.67
2019-01-29T15:02:47.357Z,3.83
2019-01-29T15:07:51.256Z,3.60
2019-01-29T15:12:55.023Z,2.83
2019-01-29T15:18:01.918Z,3.40
2019-01-29T15:23:24.889Z,3.00
2019-01-29T15:28:28.618Z,3.03
2019-01-29T15:33:32.499Z,2.50
2019-01-29T15:38:36.379Z,2.50
2019-01-29T15:43:40.097Z,2.47
2019-01-29T15:48:43.818Z,2.37
2019-01-29T15:53:47.686Z,2.40
2019-01-29T15:58:51.456Z,2.60
2019-01-29T16:03:55.171Z,3.27
2019-01-29T16:08:59.002Z,2.60
2019-01-29T16:14:02.694Z,2.77
2019-01-29T16:19:09.166Z,2.70
2019-01-29T16:24:12.871Z,2.97
2019-01-29T16:29:16.696Z,2.80
2019-01-29T16:34:20.797Z,2.50
2019-01-29T16:39:24.646Z,2.50
2019-01-29T16:44:28.981Z,5.10
2019-01-29T16:49:32.719Z,14.30
2019-01-29T16:54:36.663Z,18.63
2019-01-29T16:59:40.662Z,20.83
2019-01-29T17:04:44.479Z,21.67
2019-01-29T17:09:48.740Z,18.50
2019-01-29T17:14:52.581Z,16.30
2019-01-29T17:19:56.434Z,13.50
2019-01-29T17:25:00.245Z,12.20
2019-01-29T17:30:04.930Z,10.07
2019-01-29T17:35:08.709Z,8.60
2019-01-29T17:40:12.951Z,7.10
2019-01-29T17:45:19.536Z,6.70
2019-01-29T17:50:25.600Z,5.40
2019-01-29T17:55:30.910Z,5.10
2019-01-29T18:00:35.604Z,4.90
2019-01-29T18:05:39.380Z,4.70
2019-01-29T18:10:43.297Z,3.80
2019-01-29T18:15:47.011Z,4.10
2019-01-29T18:20:51.120Z,3.93
2019-01-29T18:25:55.184Z,3.77
2019-01-29T18:30:59.136Z,3.87
2019-01-29T18:36:02.944Z,3.57
2019-01-29T18:41:06.866Z,3.70
2019-01-29T18:46:10.719Z,3.60
2019-01-29T18:51:14.586Z,3.57
2019-01-29T18:56:18.306Z,3.93
2019-01-29T19:01:22.031Z,3.80
2019-01-29T19:06:25.722Z,4.40
2019-01-29T19:11:29.633Z,3.77
2019-01-29T19:16:33.419Z,4.10
2019-01-29T19:21:37.316Z,3.50
2019-01-29T19:26:41.041Z,3.93
2019-01-29T19:31:44.810Z,3.13
2019-01-29T19:36:48.522Z,3.37
2019-01-29T19:41:52.288Z,3.97
2019-01-29T19:46:56.034Z,3.90
2019-01-29T19:51:59.766Z,4.33
2019-01-29T19:57:03.529Z,4.03
2019-01-29T20:02:07.312Z,3.60
2019-01-29T20:07:14.232Z,3.77
2019-01-29T20:12:17.963Z,4.70
2019-01-29T20:17:21.857Z,5.40
2019-01-29T20:22:25.685Z,5.00
2019-01-29T20:27:29.565Z,5.33
2019-01-29T20:32:33.375Z,5.00
2019-01-29T20:37:37.221Z,5.97
2019-01-29T20:42:41.048Z,6.83
2019-01-29T20:47:45.588Z,6.83
2019-01-29T20:52:49.651Z,6.93
2019-01-29T20:57:53.548Z,5.83
2019-01-29T21:02:57.856Z,5.60
2019-01-29T21:08:01.698Z,6.20
2019-01-29T21:13:06.093Z,5.47
2019-01-29T21:18:09.922Z,5.13
2019-01-29T21:23:13.788Z,4.97
2019-01-29T21:28:17.489Z,5.33
2019-01-29T21:33:21.166Z,5.80
2019-01-29T21:38:24.893Z,6.00
2019-01-29T21:43:29.504Z,5.90
2019-01-29T21:48:35.622Z,6.40
2019-01-29T21:53:39.372Z,8.23
2019-01-29T21:58:43.057Z,13.40
2019-01-29T22:03:46.773Z,19.57
2019-01-29T22:08:50.544Z,22.43
2019-01-29T22:13:54.423Z,22.17
2019-01-29T22:19:04.890Z,22.03
2019-01-29T22:24:27.945Z,20.37
2019-01-29T22:29:31.687Z,19.83
2019-01-29T22:34:35.409Z,19.10
2019-01-29T22:39:39.164Z,16.67
2019-01-29T22:44:42.829Z,14.20
2019-01-29T22:49:46.576Z,12.00
2019-01-29T22:54:50.256Z,10.90
2019-01-29T22:59:54.025Z,10.57
2019-01-29T23:04:57.697Z,9.37
2019-01-29T23:10:01.524Z,9.03
2019-01-29T23:15:05.955Z,8.30
2019-01-29T23:20:12.952Z,6.87
2019-01-29T23:25:16.955Z,6.30
2019-01-29T23:30:20.723Z,6.17
2019-01-29T23:35:29.690Z,6.00
2019-01-29T23:40:52.651Z,5.70
2019-01-29T23:45:56.410Z,6.33
2019-01-29T23:51:01.377Z,6.30
2019-01-29T23:56:05.242Z,6.73
